Terminal Aerodrome Forecast
Issued by NWS

Home | Current Version | Previous Version | Text Only | Print | Product List | Glossary On
Versions: 1 2 3 4 5 6 7 8 9 10 11 12 13
471
FTUS43 KDVN 222339
TAFBRL
TAF
KBRL 222339Z 2300/2324 34003KT P6SM SCT035
      TEMPO 2300/2302 BKN025 OVC035
     FM231600 30004KT P6SM SCT040=

USA.gov is the U.S. government's official web portal to all federal, state and local government web resources and services.